sensor_id;sensor_type;location;lat;lon;timestamp;temperature;humidity
8372;DHT22;4223;48.724;8.982;2022-07-29T00:01:38;18.80;1.00
8372;DHT22;4223;48.724;8.982;2022-07-29T00:04:05;18.70;1.00
8372;DHT22;4223;48.724;8.982;2022-07-29T00:06:32;18.70;1.00
8372;DHT22;4223;48.724;8.982;2022-07-29T00:08:59;18.70;1.00
8372;DHT22;4223;48.724;8.982;2022-07-29T00:11:25;18.70;1.00
8372;DHT22;4223;48.724;8.982;2022-07-29T00:13:52;18.60;1.00
8372;DHT22;4223;48.724;8.982;2022-07-29T00:16:20;18.60;1.00
8372;DHT22;4223;48.724;8.982;2022-07-29T00:18:48;19.00;1.40
8372;DHT22;4223;48.724;8.982;2022-07-29T00:21:15;18.60;1.10
8372;DHT22;4223;48.724;8.982;2022-07-29T00:23:42;18.50;7.80
8372;DHT22;4223;48.724;8.982;2022-07-29T00:26:09;18.40;11.90
8372;DHT22;4223;48.724;8.982;2022-07-29T00:28:36;18.50;13.30
8372;DHT22;4223;48.724;8.982;2022-07-29T00:31:02;18.50;11.90
8372;DHT22;4223;48.724;8.982;2022-07-29T00:33:31;18.50;12.10
8372;DHT22;4223;48.724;8.982;2022-07-29T00:35:58;18.50;10.10
8372;DHT22;4223;48.724;8.982;2022-07-29T00:38:23;18.50;16.40
8372;DHT22;4223;48.724;8.982;2022-07-29T00:40:50;18.50;12.20
8372;DHT22;4223;48.724;8.982;2022-07-29T00:43:18;18.40;16.10
8372;DHT22;4223;48.724;8.982;2022-07-29T00:45:45;18.30;22.30
8372;DHT22;4223;48.724;8.982;2022-07-29T00:48:11;18.20;28.60
8372;DHT22;4223;48.724;8.982;2022-07-29T00:50:40;18.10;41.80
8372;DHT22;4223;48.724;8.982;2022-07-29T00:53:07;18.10;45.50
8372;DHT22;4223;48.724;8.982;2022-07-29T00:55:35;18.10;42.50
8372;DHT22;4223;48.724;8.982;2022-07-29T00:58:02;18.00;52.50
8372;DHT22;4223;48.724;8.982;2022-07-29T01:00:29;17.90;63.60
8372;DHT22;4223;48.724;8.982;2022-07-29T01:02:57;17.90;62.80
8372;DHT22;4223;48.724;8.982;2022-07-29T01:05:25;17.90;62.70
8372;DHT22;4223;48.724;8.982;2022-07-29T01:07:54;17.90;64.40
8372;DHT22;4223;48.724;8.982;2022-07-29T01:10:22;17.90;61.60
8372;DHT22;4223;48.724;8.982;2022-07-29T01:12:52;17.90;63.00
8372;DHT22;4223;48.724;8.982;2022-07-29T01:15:19;17.90;67.00
8372;DHT22;4223;48.724;8.982;2022-07-29T01:17:50;17.90;66.20
8372;DHT22;4223;48.724;8.982;2022-07-29T01:20:25;17.80;71.90
8372;DHT22;4223;48.724;8.982;2022-07-29T01:26:22;17.80;73.90
8372;DHT22;4223;48.724;8.982;2022-07-29T01:29:03;17.80;69.40
8372;DHT22;4223;48.724;8.982;2022-07-29T01:31:38;17.70;76.20
8372;DHT22;4223;48.724;8.982;2022-07-29T01:34:08;17.70;82.10
8372;DHT22;4223;48.724;8.982;2022-07-29T01:36:43;17.70;85.00
8372;DHT22;4223;48.724;8.982;2022-07-29T01:39:12;17.70;85.20
8372;DHT22;4223;48.724;8.982;2022-07-29T01:41:55;17.60;84.00
8372;DHT22;4223;48.724;8.982;2022-07-29T01:44:29;17.60;90.50
8372;DHT22;4223;48.724;8.982;2022-07-29T01:47:00;17.50;90.40
8372;DHT22;4223;48.724;8.982;2022-07-29T01:49:31;17.50;92.30
8372;DHT22;4223;48.724;8.982;2022-07-29T01:52:02;17.50;92.80
8372;DHT22;4223;48.724;8.982;2022-07-29T01:54:34;17.50;92.90
8372;DHT22;4223;48.724;8.982;2022-07-29T01:57:03;17.50;92.80
8372;DHT22;4223;48.724;8.982;2022-07-29T01:59:34;17.50;94.20
8372;DHT22;4223;48.724;8.982;2022-07-29T02:02:02;17.50;93.10
8372;DHT22;4223;48.724;8.982;2022-07-29T02:04:29;17.60;91.00
8372;DHT22;4223;48.724;8.982;2022-07-29T02:07:01;17.60;87.70
8372;DHT22;4223;48.724;8.982;2022-07-29T02:09:29;17.70;78.20
8372;DHT22;4223;48.724;8.982;2022-07-29T02:11:59;17.70;72.80
8372;DHT22;4223;48.724;8.982;2022-07-29T02:14:29;17.70;73.80
8372;DHT22;4223;48.724;8.982;2022-07-29T02:17:00;17.70;70.20
8372;DHT22;4223;48.724;8.982;2022-07-29T02:19:30;17.70;69.50
8372;DHT22;4223;48.724;8.982;2022-07-29T02:21:58;17.70;65.80
8372;DHT22;4223;48.724;8.982;2022-07-29T02:24:26;17.70;63.30
8372;DHT22;4223;48.724;8.982;2022-07-29T02:26:56;17.60;67.20
8372;DHT22;4223;48.724;8.982;2022-07-29T02:29:26;17.60;62.20
8372;DHT22;4223;48.724;8.982;2022-07-29T02:31:55;17.60;58.10
8372;DHT22;4223;48.724;8.982;2022-07-29T02:34:25;17.60;56.20
8372;DHT22;4223;48.724;8.982;2022-07-29T02:36:54;17.60;54.80
8372;DHT22;4223;48.724;8.982;2022-07-29T02:39:23;17.50;56.00
8372;DHT22;4223;48.724;8.982;2022-07-29T02:41:55;17.50;62.30
8372;DHT22;4223;48.724;8.982;2022-07-29T02:44:25;17.50;67.20
8372;DHT22;4223;48.724;8.982;2022-07-29T02:46:54;17.40;77.20
8372;DHT22;4223;48.724;8.982;2022-07-29T02:49:34;17.30;80.90
8372;DHT22;4223;48.724;8.982;2022-07-29T02:52:03;17.30;81.40
8372;DHT22;4223;48.724;8.982;2022-07-29T02:54:33;17.30;86.60
8372;DHT22;4223;48.724;8.982;2022-07-29T02:57:15;17.20;90.30
8372;DHT22;4223;48.724;8.982;2022-07-29T02:59:47;17.10;91.90
8372;DHT22;4223;48.724;8.982;2022-07-29T03:02:15;17.10;92.20
8372;DHT22;4223;48.724;8.982;2022-07-29T03:04:44;17.20;96.00
8372;DHT22;4223;48.724;8.982;2022-07-29T03:07:15;17.10;94.60
8372;DHT22;4223;48.724;8.982;2022-07-29T03:09:45;17.10;96.60
8372;DHT22;4223;48.724;8.982;2022-07-29T03:12:14;17.10;96.60
8372;DHT22;4223;48.724;8.982;2022-07-29T03:14:41;17.10;97.20
8372;DHT22;4223;48.724;8.982;2022-07-29T03:17:09;17.10;96.60
8372;DHT22;4223;48.724;8.982;2022-07-29T03:19:36;17.10;96.60
8372;DHT22;4223;48.724;8.982;2022-07-29T03:22:04;17.00;96.10
8372;DHT22;4223;48.724;8.982;2022-07-29T03:24:33;17.00;97.30
8372;DHT22;4223;48.724;8.982;2022-07-29T03:27:01;17.00;96.50
8372;DHT22;4223;48.724;8.982;2022-07-29T03:29:28;17.00;96.10
8372;DHT22;4223;48.724;8.982;2022-07-29T03:31:55;17.00;96.40
8372;DHT22;4223;48.724;8.982;2022-07-29T03:34:22;16.90;95.60
8372;DHT22;4223;48.724;8.982;2022-07-29T03:36:50;16.90;96.80
8372;DHT22;4223;48.724;8.982;2022-07-29T03:39:23;16.90;97.10
8372;DHT22;4223;48.724;8.982;2022-07-29T03:41:53;16.80;98.70
8372;DHT22;4223;48.724;8.982;2022-07-29T03:44:22;16.90;98.00
8372;DHT22;4223;48.724;8.982;2022-07-29T03:46:50;16.80;98.00
8372;DHT22;4223;48.724;8.982;2022-07-29T03:49:20;16.80;96.60
8372;DHT22;4223;48.724;8.982;2022-07-29T03:51:48;16.80;95.10
8372;DHT22;4223;48.724;8.982;2022-07-29T03:54:15;16.80;93.60
8372;DHT22;4223;48.724;8.982;2022-07-29T03:56:45;16.90;92.00
8372;DHT22;4223;48.724;8.982;2022-07-29T03:59:15;16.90;90.20
8372;DHT22;4223;48.724;8.982;2022-07-29T04:01:42;17.00;87.60
8372;DHT22;4223;48.724;8.982;2022-07-29T04:04:10;17.00;83.50
8372;DHT22;4223;48.724;8.982;2022-07-29T04:06:38;17.00;84.40
8372;DHT22;4223;48.724;8.982;2022-07-29T04:09:05;17.00;86.10
8372;DHT22;4223;48.724;8.982;2022-07-29T04:11:33;17.00;86.60
8372;DHT22;4223;48.724;8.982;2022-07-29T04:14:01;17.00;82.40
8372;DHT22;4223;48.724;8.982;2022-07-29T04:16:28;17.00;79.30
8372;DHT22;4223;48.724;8.982;2022-07-29T04:18:55;17.00;78.00
8372;DHT22;4223;48.724;8.982;2022-07-29T04:21:22;17.00;80.70
8372;DHT22;4223;48.724;8.982;2022-07-29T04:23:49;17.00;78.00
8372;DHT22;4223;48.724;8.982;2022-07-29T04:26:16;17.00;80.40
8372;DHT22;4223;48.724;8.982;2022-07-29T04:28:43;17.00;76.80
8372;DHT22;4223;48.724;8.982;2022-07-29T04:31:12;17.00;74.00
8372;DHT22;4223;48.724;8.982;2022-07-29T04:33:39;17.00;71.10
8372;DHT22;4223;48.724;8.982;2022-07-29T04:36:06;17.00;70.00
8372;DHT22;4223;48.724;8.982;2022-07-29T04:38:33;17.10;68.20
8372;DHT22;4223;48.724;8.982;2022-07-29T04:41:00;17.10;66.70
8372;DHT22;4223;48.724;8.982;2022-07-29T04:43:27;17.10;67.50
8372;DHT22;4223;48.724;8.982;2022-07-29T04:45:54;17.10;66.10
8372;DHT22;4223;48.724;8.982;2022-07-29T04:48:22;17.20;60.60
8372;DHT22;4223;48.724;8.982;2022-07-29T04:50:49;17.20;57.80
8372;DHT22;4223;48.724;8.982;2022-07-29T04:53:16;17.20;55.60
8372;DHT22;4223;48.724;8.982;2022-07-29T04:55:43;17.30;59.00
8372;DHT22;4223;48.724;8.982;2022-07-29T04:58:10;17.30;50.50
8372;DHT22;4223;48.724;8.982;2022-07-29T05:00:37;17.30;48.50
8372;DHT22;4223;48.724;8.982;2022-07-29T05:03:04;17.40;52.80
8372;DHT22;4223;48.724;8.982;2022-07-29T05:05:32;17.40;45.20
8372;DHT22;4223;48.724;8.982;2022-07-29T05:07:59;17.40;45.70
8372;DHT22;4223;48.724;8.982;2022-07-29T05:10:26;17.50;49.30
8372;DHT22;4223;48.724;8.982;2022-07-29T05:12:53;17.60;43.10
8372;DHT22;4223;48.724;8.982;2022-07-29T05:15:20;17.70;36.40
8372;DHT22;4223;48.724;8.982;2022-07-29T05:17:47;17.70;36.00
8372;DHT22;4223;48.724;8.982;2022-07-29T05:20:14;17.80;31.00
8372;DHT22;4223;48.724;8.982;2022-07-29T05:22:42;17.80;31.30
8372;DHT22;4223;48.724;8.982;2022-07-29T05:25:09;17.90;34.90
8372;DHT22;4223;48.724;8.982;2022-07-29T05:27:36;17.80;40.80
8372;DHT22;4223;48.724;8.982;2022-07-29T05:30:04;17.80;40.80
8372;DHT22;4223;48.724;8.982;2022-07-29T05:32:31;17.80;36.50
8372;DHT22;4223;48.724;8.982;2022-07-29T05:34:58;17.80;44.60
8372;DHT22;4223;48.724;8.982;2022-07-29T05:37:25;17.90;41.10
8372;DHT22;4223;48.724;8.982;2022-07-29T05:39:53;17.90;44.30
8372;DHT22;4223;48.724;8.982;2022-07-29T05:42:20;17.90;46.00
8372;DHT22;4223;48.724;8.982;2022-07-29T05:44:46;18.00;38.80
8372;DHT22;4223;48.724;8.982;2022-07-29T05:47:13;17.90;42.40
8372;DHT22;4223;48.724;8.982;2022-07-29T05:49:41;17.90;43.00
8372;DHT22;4223;48.724;8.982;2022-07-29T05:52:08;18.00;44.50
8372;DHT22;4223;48.724;8.982;2022-07-29T05:54:35;18.10;49.10
8372;DHT22;4223;48.724;8.982;2022-07-29T05:57:03;18.20;33.80
8372;DHT22;4223;48.724;8.982;2022-07-29T05:59:31;18.10;34.00
8372;DHT22;4223;48.724;8.982;2022-07-29T06:02:01;18.20;30.20
8372;DHT22;4223;48.724;8.982;2022-07-29T06:04:30;18.40;32.40
8372;DHT22;4223;48.724;8.982;2022-07-29T06:06:57;18.40;11.60
8372;DHT22;4223;48.724;8.982;2022-07-29T06:09:24;18.50;14.20
8372;DHT22;4223;48.724;8.982;2022-07-29T06:11:51;18.60;9.00
8372;DHT22;4223;48.724;8.982;2022-07-29T06:14:20;18.70;1.00
8372;DHT22;4223;48.724;8.982;2022-07-29T06:16:47;18.80;1.00
8372;DHT22;4223;48.724;8.982;2022-07-29T06:19:14;19.00;1.00
8372;DHT22;4223;48.724;8.982;2022-07-29T06:21:41;19.20;1.00
8372;DHT22;4223;48.724;8.982;2022-07-29T06:24:09;19.30;1.00
8372;DHT22;4223;48.724;8.982;2022-07-29T06:26:37;19.40;1.00
8372;DHT22;4223;48.724;8.982;2022-07-29T06:29:04;19.30;1.00
8372;DHT22;4223;48.724;8.982;2022-07-29T06:31:32;19.40;1.00
8372;DHT22;4223;48.724;8.982;2022-07-29T06:33:59;19.50;1.00
8372;DHT22;4223;48.724;8.982;2022-07-29T06:36:26;19.70;1.00
8372;DHT22;4223;48.724;8.982;2022-07-29T06:38:53;19.70;1.00
8372;DHT22;4223;48.724;8.982;2022-07-29T06:41:20;19.80;1.00
8372;DHT22;4223;48.724;8.982;2022-07-29T06:43:48;19.90;1.00
8372;DHT22;4223;48.724;8.982;2022-07-29T06:46:18;19.80;1.00
8372;DHT22;4223;48.724;8.982;2022-07-29T06:48:46;19.90;1.00
8372;DHT22;4223;48.724;8.982;2022-07-29T06:51:14;20.00;1.00
8372;DHT22;4223;48.724;8.982;2022-07-29T06:53:41;20.20;1.00
8372;DHT22;4223;48.724;8.982;2022-07-29T06:56:08;20.20;99.90
8372;DHT22;4223;48.724;8.982;2022-07-29T06:58:36;20.40;99.90
8372;DHT22;4223;48.724;8.982;2022-07-29T07:01:04;20.50;99.90
8372;DHT22;4223;48.724;8.982;2022-07-29T07:03:31;20.60;99.90
8372;DHT22;4223;48.724;8.982;2022-07-29T07:06:00;20.80;16.30
8372;DHT22;4223;48.724;8.982;2022-07-29T07:08:27;20.80;99.90
8372;DHT22;4223;48.724;8.982;2022-07-29T07:10:54;21.00;1.00
8372;DHT22;4223;48.724;8.982;2022-07-29T07:13:22;21.10;1.00
8372;DHT22;4223;48.724;8.982;2022-07-29T07:15:49;21.10;62.50
8372;DHT22;4223;48.724;8.982;2022-07-29T07:18:18;21.30;1.00
8372;DHT22;4223;48.724;8.982;2022-07-29T07:20:45;21.20;1.00
8372;DHT22;4223;48.724;8.982;2022-07-29T07:23:14;21.30;1.00
8372;DHT22;4223;48.724;8.982;2022-07-29T07:25:41;21.50;1.00
8372;DHT22;4223;48.724;8.982;2022-07-29T07:28:08;21.70;99.90
8372;DHT22;4223;48.724;8.982;2022-07-29T07:30:35;21.80;99.90
8372;DHT22;4223;48.724;8.982;2022-07-29T07:33:02;22.20;1.00
8372;DHT22;4223;48.724;8.982;2022-07-29T07:35:30;23.00;99.90
8372;DHT22;4223;48.724;8.982;2022-07-29T07:37:57;23.90;99.90
8372;DHT22;4223;48.724;8.982;2022-07-29T07:40:25;24.40;1.00
8372;DHT22;4223;48.724;8.982;2022-07-29T07:42:52;24.00;1.00
8372;DHT22;4223;48.724;8.982;2022-07-29T07:45:19;23.90;1.00
8372;DHT22;4223;48.724;8.982;2022-07-29T07:47:46;24.00;1.00
8372;DHT22;4223;48.724;8.982;2022-07-29T07:50:13;24.10;1.00
8372;DHT22;4223;48.724;8.982;2022-07-29T07:52:47;24.30;1.00
8372;DHT22;4223;48.724;8.982;2022-07-29T07:55:15;24.30;1.00
8372;DHT22;4223;48.724;8.982;2022-07-29T07:57:43;24.60;1.00
8372;DHT22;4223;48.724;8.982;2022-07-29T08:00:11;25.60;1.00
8372;DHT22;4223;48.724;8.982;2022-07-29T08:02:38;26.50;1.00
8372;DHT22;4223;48.724;8.982;2022-07-29T08:05:06;26.30;99.90
8372;DHT22;4223;48.724;8.982;2022-07-29T08:07:34;26.70;99.90
8372;DHT22;4223;48.724;8.982;2022-07-29T08:10:01;27.00;99.90
8372;DHT22;4223;48.724;8.982;2022-07-29T08:12:28;27.80;99.90
8372;DHT22;4223;48.724;8.982;2022-07-29T08:14:57;27.90;99.90
8372;DHT22;4223;48.724;8.982;2022-07-29T08:17:23;27.80;99.90
8372;DHT22;4223;48.724;8.982;2022-07-29T08:19:52;27.80;99.90
8372;DHT22;4223;48.724;8.982;2022-07-29T08:22:19;28.40;99.90
8372;DHT22;4223;48.724;8.982;2022-07-29T08:24:45;28.50;99.90
8372;DHT22;4223;48.724;8.982;2022-07-29T08:27:18;28.40;99.90
8372;DHT22;4223;48.724;8.982;2022-07-29T08:29:46;28.50;99.90
8372;DHT22;4223;48.724;8.982;2022-07-29T08:32:14;28.10;99.90
8372;DHT22;4223;48.724;8.982;2022-07-29T08:34:41;28.40;99.90
8372;DHT22;4223;48.724;8.982;2022-07-29T08:37:10;28.30;99.90
8372;DHT22;4223;48.724;8.982;2022-07-29T08:39:36;27.80;99.90
8372;DHT22;4223;48.724;8.982;2022-07-29T08:42:04;27.90;99.90
8372;DHT22;4223;48.724;8.982;2022-07-29T08:44:33;27.90;99.90
8372;DHT22;4223;48.724;8.982;2022-07-29T08:46:59;28.20;99.90
8372;DHT22;4223;48.724;8.982;2022-07-29T08:49:28;28.30;99.90
8372;DHT22;4223;48.724;8.982;2022-07-29T08:51:55;27.70;99.90
8372;DHT22;4223;48.724;8.982;2022-07-29T08:54:23;28.40;99.90
8372;DHT22;4223;48.724;8.982;2022-07-29T08:56:51;28.90;99.90
8372;DHT22;4223;48.724;8.982;2022-07-29T08:59:19;29.10;99.90
8372;DHT22;4223;48.724;8.982;2022-07-29T09:01:48;29.50;99.90
8372;DHT22;4223;48.724;8.982;2022-07-29T09:04:15;29.60;99.90
8372;DHT22;4223;48.724;8.982;2022-07-29T09:06:47;30.30;99.90
8372;DHT22;4223;48.724;8.982;2022-07-29T09:09:14;29.90;99.90
8372;DHT22;4223;48.724;8.982;2022-07-29T09:11:41;30.20;99.90
8372;DHT22;4223;48.724;8.982;2022-07-29T09:14:11;29.40;99.90
8372;DHT22;4223;48.724;8.982;2022-07-29T09:16:49;29.50;99.90
8372;DHT22;4223;48.724;8.982;2022-07-29T09:19:21;29.30;99.90
8372;DHT22;4223;48.724;8.982;2022-07-29T09:21:50;29.20;99.90
8372;DHT22;4223;48.724;8.982;2022-07-29T09:24:42;29.30;99.90
8372;DHT22;4223;48.724;8.982;2022-07-29T09:27:12;29.60;99.90
8372;DHT22;4223;48.724;8.982;2022-07-29T09:29:44;30.10;99.90
8372;DHT22;4223;48.724;8.982;2022-07-29T09:32:11;30.00;99.90
8372;DHT22;4223;48.724;8.982;2022-07-29T09:34:38;29.70;99.90
8372;DHT22;4223;48.724;8.982;2022-07-29T09:37:06;29.70;99.90
8372;DHT22;4223;48.724;8.982;2022-07-29T09:39:35;29.60;99.90
8372;DHT22;4223;48.724;8.982;2022-07-29T09:42:04;29.30;99.90
8372;DHT22;4223;48.724;8.982;2022-07-29T09:44:42;29.60;99.90
8372;DHT22;4223;48.724;8.982;2022-07-29T09:47:09;29.90;99.90
8372;DHT22;4223;48.724;8.982;2022-07-29T09:49:50;29.50;99.90
8372;DHT22;4223;48.724;8.982;2022-07-29T09:52:19;28.90;99.90
8372;DHT22;4223;48.724;8.982;2022-07-29T09:54:46;29.00;99.90
8372;DHT22;4223;48.724;8.982;2022-07-29T09:57:24;29.30;99.90
8372;DHT22;4223;48.724;8.982;2022-07-29T09:59:59;29.90;99.90
8372;DHT22;4223;48.724;8.982;2022-07-29T10:02:30;29.80;99.90
8372;DHT22;4223;48.724;8.982;2022-07-29T10:04:58;29.00;99.90
8372;DHT22;4223;48.724;8.982;2022-07-29T10:07:43;27.80;99.90
8372;DHT22;4223;48.724;8.982;2022-07-29T10:10:11;26.70;99.90
8372;DHT22;4223;48.724;8.982;2022-07-29T10:12:55;25.70;99.90
8372;DHT22;4223;48.724;8.982;2022-07-29T10:15:24;25.00;99.90
8372;DHT22;4223;48.724;8.982;2022-07-29T10:17:51;24.40;99.90
8372;DHT22;4223;48.724;8.982;2022-07-29T10:20:20;23.90;99.90
8372;DHT22;4223;48.724;8.982;2022-07-29T10:22:48;23.70;99.90
8372;DHT22;4223;48.724;8.982;2022-07-29T10:25:16;23.50;99.90
8372;DHT22;4223;48.724;8.982;2022-07-29T10:27:44;23.40;1.00
8372;DHT22;4223;48.724;8.982;2022-07-29T10:30:11;22.80;1.00
8372;DHT22;4223;48.724;8.982;2022-07-29T10:33:09;22.30;1.00
8372;DHT22;4223;48.724;8.982;2022-07-29T10:35:48;21.50;1.00
8372;DHT22;4223;48.724;8.982;2022-07-29T10:38:47;20.70;1.00
8372;DHT22;4223;48.724;8.982;2022-07-29T10:41:27;20.20;51.00
8372;DHT22;4223;48.724;8.982;2022-07-29T10:44:01;19.80;37.90
8372;DHT22;4223;48.724;8.982;2022-07-29T10:46:34;19.40;80.80
8372;DHT22;4223;48.724;8.982;2022-07-29T10:49:08;19.30;99.30
8372;DHT22;4223;48.724;8.982;2022-07-29T10:51:55;19.30;98.60
8372;DHT22;4223;48.724;8.982;2022-07-29T10:57:23;19.20;99.90
8372;DHT22;4223;48.724;8.982;2022-07-29T11:00:30;19.20;99.90
8372;DHT22;4223;48.724;8.982;2022-07-29T11:02:57;19.20;99.90
8372;DHT22;4223;48.724;8.982;2022-07-29T11:05:26;19.20;99.90
8372;DHT22;4223;48.724;8.982;2022-07-29T11:08:17;19.20;99.90
8372;DHT22;4223;48.724;8.982;2022-07-29T11:10:47;19.20;99.90
8372;DHT22;4223;48.724;8.982;2022-07-29T11:13:49;19.30;99.90
8372;DHT22;4223;48.724;8.982;2022-07-29T11:16:19;19.30;99.90
8372;DHT22;4223;48.724;8.982;2022-07-29T11:19:18;19.20;99.90
8372;DHT22;4223;48.724;8.982;2022-07-29T11:21:45;19.20;99.90
8372;DHT22;4223;48.724;8.982;2022-07-29T11:24:15;19.20;99.90
8372;DHT22;4223;48.724;8.982;2022-07-29T11:26:44;19.30;99.90
8372;DHT22;4223;48.724;8.982;2022-07-29T11:29:18;19.00;99.90
8372;DHT22;4223;48.724;8.982;2022-07-29T11:31:48;19.10;99.90
8372;DHT22;4223;48.724;8.982;2022-07-29T11:34:26;19.20;99.90
8372;DHT22;4223;48.724;8.982;2022-07-29T11:37:14;19.50;99.90
8372;DHT22;4223;48.724;8.982;2022-07-29T11:39:42;20.20;99.90
8372;DHT22;4223;48.724;8.982;2022-07-29T11:42:39;21.00;99.90
8372;DHT22;4223;48.724;8.982;2022-07-29T11:45:07;21.10;81.00
8372;DHT22;4223;48.724;8.982;2022-07-29T11:47:36;20.90;76.70
8372;DHT22;4223;48.724;8.982;2022-07-29T11:50:06;20.50;82.50
8372;DHT22;4223;48.724;8.982;2022-07-29T11:52:34;20.50;94.10
8372;DHT22;4223;48.724;8.982;2022-07-29T11:55:05;20.50;93.40
8372;DHT22;4223;48.724;8.982;2022-07-29T11:57:34;20.60;99.90
8372;DHT22;4223;48.724;8.982;2022-07-29T12:00:04;20.60;93.70
8372;DHT22;4223;48.724;8.982;2022-07-29T12:02:39;20.70;89.50
8372;DHT22;4223;48.724;8.982;2022-07-29T12:05:08;20.60;86.80
8372;DHT22;4223;48.724;8.982;2022-07-29T12:07:37;20.50;55.80
8372;DHT22;4223;48.724;8.982;2022-07-29T12:10:05;20.30;85.50
8372;DHT22;4223;48.724;8.982;2022-07-29T12:12:32;20.30;92.50
8372;DHT22;4223;48.724;8.982;2022-07-29T12:15:15;20.40;99.90
8372;DHT22;4223;48.724;8.982;2022-07-29T12:17:44;20.40;99.90
8372;DHT22;4223;48.724;8.982;2022-07-29T12:20:11;20.30;97.50
8372;DHT22;4223;48.724;8.982;2022-07-29T12:22:40;20.30;99.50
8372;DHT22;4223;48.724;8.982;2022-07-29T12:25:10;20.20;81.20
8372;DHT22;4223;48.724;8.982;2022-07-29T12:27:39;20.20;94.00
8372;DHT22;4223;48.724;8.982;2022-07-29T12:30:09;20.20;86.20
8372;DHT22;4223;48.724;8.982;2022-07-29T12:32:38;20.20;90.20
8372;DHT22;4223;48.724;8.982;2022-07-29T12:35:08;20.20;98.80
8372;DHT22;4223;48.724;8.982;2022-07-29T12:37:37;20.20;99.90
8372;DHT22;4223;48.724;8.982;2022-07-29T12:40:06;20.30;99.90
8372;DHT22;4223;48.724;8.982;2022-07-29T12:42:33;20.30;99.90
8372;DHT22;4223;48.724;8.982;2022-07-29T12:45:01;20.20;99.90
8372;DHT22;4223;48.724;8.982;2022-07-29T12:47:28;20.20;98.10
8372;DHT22;4223;48.724;8.982;2022-07-29T12:50:09;20.10;94.80
8372;DHT22;4223;48.724;8.982;2022-07-29T12:52:36;19.90;85.20
8372;DHT22;4223;48.724;8.982;2022-07-29T12:55:04;19.90;99.90
8372;DHT22;4223;48.724;8.982;2022-07-29T12:57:32;19.90;99.90
8372;DHT22;4223;48.724;8.982;2022-07-29T13:00:00;19.80;99.90
8372;DHT22;4223;48.724;8.982;2022-07-29T13:02:28;19.70;99.90
8372;DHT22;4223;48.724;8.982;2022-07-29T13:04:56;19.70;99.90
8372;DHT22;4223;48.724;8.982;2022-07-29T13:07:29;19.80;99.90
8372;DHT22;4223;48.724;8.982;2022-07-29T13:10:10;19.70;92.60
8372;DHT22;4223;48.724;8.982;2022-07-29T13:12:38;19.50;66.30
8372;DHT22;4223;48.724;8.982;2022-07-29T13:15:13;19.60;98.90
8372;DHT22;4223;48.724;8.982;2022-07-29T13:17:41;19.60;99.90
8372;DHT22;4223;48.724;8.982;2022-07-29T13:20:10;19.50;99.90
8372;DHT22;4223;48.724;8.982;2022-07-29T13:22:41;19.50;99.90
8372;DHT22;4223;48.724;8.982;2022-07-29T13:25:09;19.40;97.90
8372;DHT22;4223;48.724;8.982;2022-07-29T13:27:37;19.50;99.90
8372;DHT22;4223;48.724;8.982;2022-07-29T13:30:07;19.60;99.90
8372;DHT22;4223;48.724;8.982;2022-07-29T13:32:35;19.50;54.30
8372;DHT22;4223;48.724;8.982;2022-07-29T13:35:04;19.70;66.50
8372;DHT22;4223;48.724;8.982;2022-07-29T13:37:32;20.10;93.70
8372;DHT22;4223;48.724;8.982;2022-07-29T13:40:02;20.30;80.30
8372;DHT22;4223;48.724;8.982;2022-07-29T13:42:29;20.60;95.20
8372;DHT22;4223;48.724;8.982;2022-07-29T13:44:57;20.60;39.00
8372;DHT22;4223;48.724;8.982;2022-07-29T13:47:24;20.60;51.00
8372;DHT22;4223;48.724;8.982;2022-07-29T13:49:51;20.70;1.00
8372;DHT22;4223;48.724;8.982;2022-07-29T13:52:19;20.90;29.20
8372;DHT22;4223;48.724;8.982;2022-07-29T13:54:46;21.10;1.00
8372;DHT22;4223;48.724;8.982;2022-07-29T13:57:14;21.20;1.00
8372;DHT22;4223;48.724;8.982;2022-07-29T13:59:41;21.30;1.00
8372;DHT22;4223;48.724;8.982;2022-07-29T14:02:10;21.20;1.00
8372;DHT22;4223;48.724;8.982;2022-07-29T14:04:38;21.30;50.80
8372;DHT22;4223;48.724;8.982;2022-07-29T14:07:05;21.30;1.00
8372;DHT22;4223;48.724;8.982;2022-07-29T14:09:32;21.40;1.00
8372;DHT22;4223;48.724;8.982;2022-07-29T14:11:59;21.50;1.00
8372;DHT22;4223;48.724;8.982;2022-07-29T14:14:29;21.50;1.00
8372;DHT22;4223;48.724;8.982;2022-07-29T14:16:57;21.60;4.80
8372;DHT22;4223;48.724;8.982;2022-07-29T14:19:24;21.60;1.00
8372;DHT22;4223;48.724;8.982;2022-07-29T14:21:50;21.60;1.00
8372;DHT22;4223;48.724;8.982;2022-07-29T14:24:17;21.60;1.00
8372;DHT22;4223;48.724;8.982;2022-07-29T14:26:44;21.70;25.80
8372;DHT22;4223;48.724;8.982;2022-07-29T14:29:11;21.80;1.00
8372;DHT22;4223;48.724;8.982;2022-07-29T14:31:39;21.80;1.00
8372;DHT22;4223;48.724;8.982;2022-07-29T14:34:07;21.80;1.00
8372;DHT22;4223;48.724;8.982;2022-07-29T14:36:34;21.90;1.00
8372;DHT22;4223;48.724;8.982;2022-07-29T14:39:01;21.90;1.00
8372;DHT22;4223;48.724;8.982;2022-07-29T14:41:28;21.90;99.90
8372;DHT22;4223;48.724;8.982;2022-07-29T14:43:55;21.90;1.00
8372;DHT22;4223;48.724;8.982;2022-07-29T14:46:23;22.00;1.00
8372;DHT22;4223;48.724;8.982;2022-07-29T14:48:51;22.00;99.90
8372;DHT22;4223;48.724;8.982;2022-07-29T14:51:18;21.90;1.00
8372;DHT22;4223;48.724;8.982;2022-07-29T14:53:45;22.00;1.00
8372;DHT22;4223;48.724;8.982;2022-07-29T14:56:12;22.10;1.00
8372;DHT22;4223;48.724;8.982;2022-07-29T14:58:39;22.10;1.00
8372;DHT22;4223;48.724;8.982;2022-07-29T15:01:06;22.10;99.90
8372;DHT22;4223;48.724;8.982;2022-07-29T15:03:33;22.10;1.00
8372;DHT22;4223;48.724;8.982;2022-07-29T15:06:01;22.10;1.00
8372;DHT22;4223;48.724;8.982;2022-07-29T15:08:28;22.20;99.90
8372;DHT22;4223;48.724;8.982;2022-07-29T15:10:56;22.20;1.00
8372;DHT22;4223;48.724;8.982;2022-07-29T15:13:24;22.20;1.00
8372;DHT22;4223;48.724;8.982;2022-07-29T15:15:51;22.20;1.00
8372;DHT22;4223;48.724;8.982;2022-07-29T15:18:18;22.20;1.00
8372;DHT22;4223;48.724;8.982;2022-07-29T15:20:45;22.20;1.00
8372;DHT22;4223;48.724;8.982;2022-07-29T15:23:13;22.20;1.00
8372;DHT22;4223;48.724;8.982;2022-07-29T15:25:40;22.30;1.00
8372;DHT22;4223;48.724;8.982;2022-07-29T15:28:07;22.30;1.00
8372;DHT22;4223;48.724;8.982;2022-07-29T15:30:35;22.30;1.00
8372;DHT22;4223;48.724;8.982;2022-07-29T15:33:06;22.30;1.00
8372;DHT22;4223;48.724;8.982;2022-07-29T15:35:33;22.30;99.90
8372;DHT22;4223;48.724;8.982;2022-07-29T15:38:00;22.30;1.90
8372;DHT22;4223;48.724;8.982;2022-07-29T15:40:29;22.30;99.90
8372;DHT22;4223;48.724;8.982;2022-07-29T15:42:56;22.40;99.90
8372;DHT22;4223;48.724;8.982;2022-07-29T15:45:26;22.30;98.30
8372;DHT22;4223;48.724;8.982;2022-07-29T15:47:53;22.30;99.90
8372;DHT22;4223;48.724;8.982;2022-07-29T15:50:20;22.30;99.90
8372;DHT22;4223;48.724;8.982;2022-07-29T15:52:47;22.40;99.90
8372;DHT22;4223;48.724;8.982;2022-07-29T15:55:14;22.40;1.00
8372;DHT22;4223;48.724;8.982;2022-07-29T15:57:42;22.40;99.90
8372;DHT22;4223;48.724;8.982;2022-07-29T16:00:10;22.40;99.90
8372;DHT22;4223;48.724;8.982;2022-07-29T16:02:38;22.40;1.00
8372;DHT22;4223;48.724;8.982;2022-07-29T16:05:05;22.40;99.90
8372;DHT22;4223;48.724;8.982;2022-07-29T16:07:32;22.40;99.90
8372;DHT22;4223;48.724;8.982;2022-07-29T16:09:59;22.40;99.90
8372;DHT22;4223;48.724;8.982;2022-07-29T16:12:26;22.30;1.00
8372;DHT22;4223;48.724;8.982;2022-07-29T16:14:54;22.40;99.90
8372;DHT22;4223;48.724;8.982;2022-07-29T16:17:21;22.40;99.90
8372;DHT22;4223;48.724;8.982;2022-07-29T16:19:48;22.30;90.60
8372;DHT22;4223;48.724;8.982;2022-07-29T16:22:15;22.30;1.00
8372;DHT22;4223;48.724;8.982;2022-07-29T16:24:42;22.30;99.90